Terminal Aerodrome Forecast
Issued by NWS Albuquerque, NM

Home | Current Version | Previous Version | Text Only | Print | Product List | Glossary On
Versions: 1 2 3 4 5 6 7 8 9 10 11 12 13
000
FTUS45 KABQ 262328
TAFABQ
TAF
KABQ 262328Z 2700/2724 27008KT P6SM SCT100
     FM270300 30008KT P6SM FEW100
     FM270600 VRB05KT P6SM SKC
     FM271200 08014G23KT P6SM SCT080
     FM272000 15007KT P6SM VCSH BKN090=

USA.gov is the U.S. government's official web portal to all federal, state and local government web resources and services.